x

Cape Elizabeth- 45nm Nw Of Aberdeen, Wa (46041) Wave Buoy

1:50am - Thu 19th Apr 2018 All times are PDT. -7 hours from GMT.

  • Sig Wave height 6.2ft
  • Swell Direction
  • Peak Period 13s
  • Average Period 8s
  • Wind
    13mph, 16mph gusts
  • Sea Temp 51°f
  • Air Temp 49°f
  • Sea Pressure 1022.3mb
  • Cape Elizabeth- 45nm Nw Of Aberdeen, Wa
  • Cape Elizabeth- 45nm Nw Of Aberdeen, Wa

More Historic Weather Station data

Upgrade to MSW Pro to gain access to the past 30 days of data for over 8000 Wavebouys and Weather Stations around the globe.

Join

Comparision Forecast

View Surf forecast
   
Thu 04/19 1:50am 6ft 13s 8s 13 16 mph 1022.3mb 51f 49f
12:50am 5.5ft 13s 7s 13 16 mph 1022.3mb 51f 49f
Wed 04/18 11:50pm 5.5ft 13s 7s 16 18 mph 1022.2mb 51f 50f
10:50pm 5ft 13s 6s 16 18 mph 1021.9mb 51f 50f
9:50pm 5ft 13s 7s 16 20 mph 1021.9mb 51f 50f
8:50pm 5ft 13s 7s 16 18 mph 1021.6mb 51f 51f
7:50pm 5ft 14s 7s 13 16 mph 1021.4mb 51f 51f
6:50pm 5ft 14s 7s 16 18 mph 1021.5mb 51f 50f
5:50pm 5.5ft 13s 8s 13 16 mph 1021.6mb 51f 50f
4:50pm 5ft 14s 8s 16 18 mph 1021.6mb 52f 49f
3:50pm 5ft 13s 8s 13 16 mph 1021.8mb 52f 49f
2:50pm 6ft 14s 9s 13 16 mph 1022.2mb 52f 48f
1:50pm 4.5ft 14s 8s 7 9 mph 1022.3mb 53f 48f
12:50pm 4.5ft 14s 8s 2 2 mph 1022.3mb 52f 48f
11:50am 4.5ft 15s  -  2 4 mph 1022.7mb 51f 47f
10:50am 4.5ft 14s 7s 2 4 mph 1023mb 50f 47f
9:50am 4.5ft 15s 7s 7 7 mph 1023.1mb 50f 46f
8:50am 4ft 10s 6s 9 9 mph 1022.9mb 50f 46f
7:50am 4.5ft 8s 7s 9 11 mph 1022.6mb 50f 47f
6:50am 4.5ft 10s 6s 11 11 mph 1022.4mb 50f 46f
5:50am 5ft 9s 6s 11 13 mph 1022.3mb 50f 46f
4:50am 5ft 8s 6s 11 16 mph 1022.4mb 50f 47f
3:50am 5ft 9s 6s 13 16 mph 1022.5mb 50f 47f
2:50am 5ft 9s 6s 13 16 mph 1022.7mb 50f 47f
1:50am 5ft 8s 6s 16 18 mph 1022.9mb 50f 47f
12:50am 5ft 10s 6s 11 11 mph 1023mb 50f 48f
Tue 04/17 11:50pm 5ft 10s 6s 7 11 mph 1023mb 50f 48f
10:50pm 5.5ft 10s 7s 9 11 mph 1023.4mb 50f 48f
9:50pm 6ft 9s 7s 9 11 mph 1023.6mb 50f 48f
8:50pm 6ft 10s 7s 11 13 mph 1023.6mb 50f 48f
7:50pm 6ft 9s 7s 9 11 mph 1023.7mb 50f 48f
6:50pm 6ft 9s 6s 11 13 mph 1023.9mb 50f 47f
5:50pm 7ft 10s 7s 11 13 mph 1024mb 50f 48f
4:50pm 7.5ft 9s 7s 9 11 mph 1024mb 50f 48f
3:50pm 7.5ft 8s 7s 11 13 mph 1024.1mb 50f 48f
2:50pm 9ft 10s 7s 9 9 mph 1023.9mb 50f 48f
1:50pm 8ft 11s 7s 11 16 mph 1023.4mb 50f 47f
12:50pm 9ft 9s 7s 13 16 mph 1023mb 50f 47f
11:50am 9.5ft 10s 7s 11 20 mph 1022.7mb 50f 47f
10:50am 9.5ft 9s 7s 11 13 mph 1022.1mb 50f 46f
9:50am 10ft 11s 7s 13 18 mph 1021.3mb 50f 47f
8:50am 11.5ft 10s 8s 20 22 mph 1020.7mb 50f 44f
7:50am 11ft 10s 7s 16 20 mph 1019.7mb 50f 46f
6:50am 12ft 11s 8s 18 22 mph 1018.9mb 50f 46f
5:50am 12.5ft 11s 8s 18 20 mph 1018.3mb 50f 46f
4:50am 13ft 11s 8s 18 22 mph 1017.5mb 50f 47f
3:50am 14ft 11s 8s 20 22 mph 1016.6mb 50f 48f
2:50am 14ft 11s 8s 18 22 mph 1016mb 50f 48f
1:50am 13.5ft 11s 8s 20 27 mph 1015.6mb 50f 48f
12:50am 13ft 12s 8s 25 31 mph 1014.9mb 50f 48f
Mon 04/16 11:50pm 14.5ft 11s 8s 25 31 mph 1013.8mb 50f 48f
10:50pm 14ft 11s 8s 25 29 mph 1013.1mb 50f 48f
9:50pm 15ft 11s 8s 25 31 mph 1012.2mb 50f 48f
8:50pm 14ft 11s 8s 27 34 mph 1011mb 50f 48f
7:50pm 13.5ft 11s 8s 27 31 mph 1010mb 50f 49f
6:50pm 13ft 10s 8s 25 29 mph 1009.2mb 50f 49f
5:50pm 11.5ft 11s 7s 22 29 mph 1008.4mb 50f 49f
4:50pm 11.5ft 11s 8s 25 29 mph 1007.4mb 50f 49f
3:50pm 11.5ft 10s 7s 22 27 mph 1006.7mb 50f 49f
2:50pm 10.5ft 9s 7s 22 27 mph 1006.1mb 50f 49f
1:50pm 10ft 10s 7s 25 31 mph 1005.3mb 50f 49f
12:50pm 10.5ft 12s 7s 25 29 mph 1004.8mb 50f 49f
11:50am 10ft 12s 7s 25 27 mph 1004.4mb 50f 49f
10:50am 9.5ft 9s  -  22 29 mph 1003.6mb 50f 48f
9:50am 9.5ft 13s 7s 22 31 mph 1003.1mb 50f 46f
8:50am 9ft 13s 7s 22 29 mph 1002.7mb 50f 48f
7:50am 10ft 14s 7s 20 25 mph 1002.4mb 50f 48f
6:50am 9ft 12s 7s 20 25 mph 1002.1mb 50f 48f
5:50am 8ft 14s 8s 11 16 mph 1001.7mb 50f 47f
4:50am 8.5ft 11s 8s 7 7 mph 1001.7mb 50f 46f
3:50am 8ft 14s 8s 9 11 mph 1001.4mb 50f 46f
2:50am 9ft 14s 8s 18 22 mph 1001.1mb 50f 46f
1:50am 9.5ft 14s 8s 16 18 mph 1001mb 50f 46f
12:50am 9ft 13s 8s 18 22 mph 1001mb 50f 46f
Sun 04/15 11:50pm 9.5ft 14s 8s 20 22 mph 1001mb 50f 47f
10:50pm 10.5ft 15s 7s 20 27 mph 1001.2mb 50f 46f
9:50pm 10ft 15s 7s 25 29 mph 1001.5mb 50f 48f
8:50pm 10.5ft 14s 7s 27 31 mph 1001.6mb 50f 48f
7:50pm 9.5ft 14s 7s 27 34 mph 1001.9mb 50f 48f
6:50pm 8.5ft 15s 7s 27 31 mph 1002.4mb 50f 48f
5:50pm 8.5ft 14s 7s 25 29 mph 1002.9mb 50f 48f
4:50pm 8.5ft 11s 8s 22 27 mph 1004.1mb 50f 48f
3:50pm 8.5ft 16s 9s 18 22 mph 1005.2mb 50f 48f
2:50pm 9.5ft 14s 9s 13 18 mph 1006.6mb 50f 47f
1:50pm 9.5ft 15s 10s 11 13 mph 1007.7mb 50f 47f
12:50pm 9ft 11s 9s 7 7 mph 1008.9mb 50f 46f
11:50am 10ft 16s 10s 7 9 mph 1009.5mb 50f 46f
10:50am 11.5ft 15s 10s 4 7 mph 1010.2mb 50f 46f
9:50am 10ft 16s 9s 4 9 mph 1010.7mb 50f 46f